LRCL - CLUJ NAPOCA / AVRAM IANCU

Compiled: 18:22:38 on 20/10/2018

Latest METAR/SPECI Reports

METAR LRCL 201800Z 30004KT CAVOK 14/11 Q1020=

Previous reports

METAR LRCL 201730Z 28005KT CAVOK 15/11 Q1021=
METAR LRCL 201700Z 28006KT CAVOK 15/11 Q1021=
METAR LRCL 201630Z 26004KT CAVOK 15/11 Q1021=
METAR LRCL 201600Z 28004KT CAVOK 15/10 Q1020=

Latest TAF report

TAF LRCL 201700Z 2018/2103 VRB04KT CAVOK BECMG 2022/2024 5000 -RA BKN015 BKN035 TEMPO 2101/2103 3000 SHRA BKN010 SCT030CB OVC035=

Valid WARNINGS

No valid warnings for LRCL